sensor_id;sensor_type;location;lat;lon;timestamp;pressure;altitude;pressure_sealevel;temperature;humidity
7962;BME280;4026;43.652;24.906;2023-05-23T00:01:04;98957.81;;;15.62;100.00
7962;BME280;4026;43.652;24.906;2023-05-23T00:03:32;98960.31;;;15.54;100.00
7962;BME280;4026;43.652;24.906;2023-05-23T00:05:59;98959.81;;;15.51;100.00
7962;BME280;4026;43.652;24.906;2023-05-23T00:08:26;98965.09;;;15.49;100.00
7962;BME280;4026;43.652;24.906;2023-05-23T00:10:53;98961.94;;;15.55;100.00
7962;BME280;4026;43.652;24.906;2023-05-23T00:13:21;98967.06;;;15.55;100.00
7962;BME280;4026;43.652;24.906;2023-05-23T00:15:48;98955.75;;;15.48;100.00
7962;BME280;4026;43.652;24.906;2023-05-23T00:18:15;98960.38;;;15.45;100.00
7962;BME280;4026;43.652;24.906;2023-05-23T00:20:43;98954.41;;;15.44;100.00
7962;BME280;4026;43.652;24.906;2023-05-23T00:23:11;98953.66;;;15.34;100.00
7962;BME280;4026;43.652;24.906;2023-05-23T00:25:43;98957.47;;;15.30;100.00
7962;BME280;4026;43.652;24.906;2023-05-23T00:28:13;98951.00;;;15.26;100.00
7962;BME280;4026;43.652;24.906;2023-05-23T00:30:42;98959.38;;;15.28;100.00
7962;BME280;4026;43.652;24.906;2023-05-23T00:33:09;98957.47;;;15.30;100.00
7962;BME280;4026;43.652;24.906;2023-05-23T00:35:38;98961.56;;;15.23;100.00
7962;BME280;4026;43.652;24.906;2023-05-23T00:38:05;98952.81;;;15.15;100.00
7962;BME280;4026;43.652;24.906;2023-05-23T00:40:32;98952.13;;;15.13;100.00
7962;BME280;4026;43.652;24.906;2023-05-23T00:42:59;98952.94;;;15.14;100.00
7962;BME280;4026;43.652;24.906;2023-05-23T00:45:26;98948.22;;;15.09;100.00
7962;BME280;4026;43.652;24.906;2023-05-23T00:47:55;98946.84;;;15.15;100.00
7962;BME280;4026;43.652;24.906;2023-05-23T00:50:23;98939.94;;;15.15;100.00
7962;BME280;4026;43.652;24.906;2023-05-23T00:52:54;98946.19;;;15.13;100.00
7962;BME280;4026;43.652;24.906;2023-05-23T00:55:22;98939.84;;;15.07;100.00
7962;BME280;4026;43.652;24.906;2023-05-23T00:57:50;98936.69;;;15.13;100.00
7962;BME280;4026;43.652;24.906;2023-05-23T01:00:20;98938.88;;;15.08;100.00
7962;BME280;4026;43.652;24.906;2023-05-23T01:02:47;98933.72;;;15.08;100.00
7962;BME280;4026;43.652;24.906;2023-05-23T01:05:18;98927.91;;;15.06;100.00
7962;BME280;4026;43.652;24.906;2023-05-23T01:07:47;98924.00;;;15.02;100.00
7962;BME280;4026;43.652;24.906;2023-05-23T01:10:15;98929.16;;;15.02;100.00
7962;BME280;4026;43.652;24.906;2023-05-23T01:12:52;98920.47;;;15.03;100.00
7962;BME280;4026;43.652;24.906;2023-05-23T01:15:26;98919.66;;;15.03;100.00
7962;BME280;4026;43.652;24.906;2023-05-23T01:17:59;98923.19;;;15.02;100.00
7962;BME280;4026;43.652;24.906;2023-05-23T01:20:30;98924.19;;;14.91;100.00
7962;BME280;4026;43.652;24.906;2023-05-23T01:23:28;98919.50;;;14.77;100.00
7962;BME280;4026;43.652;24.906;2023-05-23T01:26:15;98921.78;;;14.80;100.00
7962;BME280;4026;43.652;24.906;2023-05-23T01:28:47;98927.13;;;14.68;100.00
7962;BME280;4026;43.652;24.906;2023-05-23T01:31:16;98931.97;;;14.71;100.00
7962;BME280;4026;43.652;24.906;2023-05-23T01:33:45;98930.38;;;14.70;100.00
7962;BME280;4026;43.652;24.906;2023-05-23T01:36:14;98931.22;;;14.61;100.00
7962;BME280;4026;43.652;24.906;2023-05-23T01:38:41;98921.22;;;14.58;100.00
7962;BME280;4026;43.652;24.906;2023-05-23T01:41:08;98927.97;;;14.59;100.00
7962;BME280;4026;43.652;24.906;2023-05-23T01:43:34;98927.44;;;14.46;100.00
7962;BME280;4026;43.652;24.906;2023-05-23T01:46:03;98925.97;;;14.43;100.00
7962;BME280;4026;43.652;24.906;2023-05-23T01:48:32;98927.72;;;14.43;100.00
7962;BME280;4026;43.652;24.906;2023-05-23T01:51:00;98931.22;;;14.42;100.00
7962;BME280;4026;43.652;24.906;2023-05-23T01:53:27;98928.81;;;14.40;100.00
7962;BME280;4026;43.652;24.906;2023-05-23T01:55:56;98926.63;;;14.36;100.00
7962;BME280;4026;43.652;24.906;2023-05-23T01:58:23;98933.41;;;14.37;100.00
7962;BME280;4026;43.652;24.906;2023-05-23T02:00:50;98930.44;;;14.32;100.00
7962;BME280;4026;43.652;24.906;2023-05-23T02:03:18;98932.47;;;14.38;100.00
7962;BME280;4026;43.652;24.906;2023-05-23T02:05:45;98933.69;;;14.34;100.00
7962;BME280;4026;43.652;24.906;2023-05-23T02:08:12;98938.53;;;14.37;100.00
7962;BME280;4026;43.652;24.906;2023-05-23T02:10:38;98934.50;;;14.34;100.00
7962;BME280;4026;43.652;24.906;2023-05-23T02:13:05;98929.38;;;14.24;100.00
7962;BME280;4026;43.652;24.906;2023-05-23T02:15:32;98939.13;;;14.21;100.00
7962;BME280;4026;43.652;24.906;2023-05-23T02:17:59;98935.19;;;14.26;100.00
7962;BME280;4026;43.652;24.906;2023-05-23T02:20:27;98946.03;;;14.20;100.00
7962;BME280;4026;43.652;24.906;2023-05-23T02:22:54;98941.44;;;14.14;100.00
7962;BME280;4026;43.652;24.906;2023-05-23T02:25:21;98952.09;;;14.19;100.00
7962;BME280;4026;43.652;24.906;2023-05-23T02:27:48;98935.72;;;14.30;100.00
7962;BME280;4026;43.652;24.906;2023-05-23T02:30:15;98940.47;;;14.25;100.00
7962;BME280;4026;43.652;24.906;2023-05-23T02:32:41;98938.84;;;14.24;100.00
7962;BME280;4026;43.652;24.906;2023-05-23T02:35:08;98941.72;;;14.11;100.00
7962;BME280;4026;43.652;24.906;2023-05-23T02:37:37;98949.97;;;14.15;100.00
7962;BME280;4026;43.652;24.906;2023-05-23T02:40:05;98955.34;;;14.21;100.00
7962;BME280;4026;43.652;24.906;2023-05-23T02:42:32;98954.13;;;14.16;100.00
7962;BME280;4026;43.652;24.906;2023-05-23T02:44:59;98960.78;;;14.18;100.00
7962;BME280;4026;43.652;24.906;2023-05-23T02:47:27;98963.50;;;14.17;100.00
7962;BME280;4026;43.652;24.906;2023-05-23T02:49:53;98954.56;;;14.11;100.00
7962;BME280;4026;43.652;24.906;2023-05-23T02:52:20;98961.59;;;14.09;100.00
7962;BME280;4026;43.652;24.906;2023-05-23T02:54:48;98963.75;;;14.04;100.00
7962;BME280;4026;43.652;24.906;2023-05-23T02:57:15;98966.88;;;13.98;100.00
7962;BME280;4026;43.652;24.906;2023-05-23T02:59:42;98964.81;;;13.72;100.00
7962;BME280;4026;43.652;24.906;2023-05-23T03:02:09;98962.38;;;13.61;100.00
7962;BME280;4026;43.652;24.906;2023-05-23T03:04:36;98962.41;;;13.80;100.00
7962;BME280;4026;43.652;24.906;2023-05-23T03:07:03;98964.31;;;13.88;100.00
7962;BME280;4026;43.652;24.906;2023-05-23T03:09:30;98961.31;;;13.93;100.00
7962;BME280;4026;43.652;24.906;2023-05-23T03:11:59;98967.84;;;13.97;100.00
7962;BME280;4026;43.652;24.906;2023-05-23T03:14:25;98962.69;;;13.97;100.00
7962;BME280;4026;43.652;24.906;2023-05-23T03:16:52;98962.28;;;14.11;100.00
7962;BME280;4026;43.652;24.906;2023-05-23T03:19:19;98976.75;;;14.12;100.00
7962;BME280;4026;43.652;24.906;2023-05-23T03:21:46;98974.31;;;13.91;100.00
7962;BME280;4026;43.652;24.906;2023-05-23T03:24:14;98977.00;;;13.90;100.00
7962;BME280;4026;43.652;24.906;2023-05-23T03:26:41;98978.09;;;14.07;100.00
7962;BME280;4026;43.652;24.906;2023-05-23T03:29:09;98982.16;;;14.09;100.00
7962;BME280;4026;43.652;24.906;2023-05-23T03:31:36;98981.63;;;14.15;100.00
7962;BME280;4026;43.652;24.906;2023-05-23T03:34:03;98982.16;;;14.19;100.00
7962;BME280;4026;43.652;24.906;2023-05-23T03:36:30;98984.06;;;14.17;100.00
7962;BME280;4026;43.652;24.906;2023-05-23T03:38:58;98980.00;;;14.14;100.00
7962;BME280;4026;43.652;24.906;2023-05-23T03:41:25;98984.34;;;14.14;100.00
7962;BME280;4026;43.652;24.906;2023-05-23T03:43:52;98982.97;;;14.19;100.00
7962;BME280;4026;43.652;24.906;2023-05-23T03:46:20;98980.53;;;14.27;100.00
7962;BME280;4026;43.652;24.906;2023-05-23T03:48:47;98978.09;;;14.36;100.00
7962;BME280;4026;43.652;24.906;2023-05-23T03:51:14;98986.72;;;14.44;100.00
7962;BME280;4026;43.652;24.906;2023-05-23T03:53:40;98970.50;;;14.54;100.00
7962;BME280;4026;43.652;24.906;2023-05-23T03:56:07;98967.78;;;14.55;100.00
7962;BME280;4026;43.652;24.906;2023-05-23T03:58:34;98978.75;;;14.67;100.00
7962;BME280;4026;43.652;24.906;2023-05-23T04:01:01;98978.31;;;14.71;100.00
7962;BME280;4026;43.652;24.906;2023-05-23T04:03:29;98978.00;;;14.75;100.00
7962;BME280;4026;43.652;24.906;2023-05-23T04:05:58;98978.84;;;14.65;100.00
7962;BME280;4026;43.652;24.906;2023-05-23T04:08:25;98981.94;;;14.79;100.00
7962;BME280;4026;43.652;24.906;2023-05-23T04:10:52;98983.41;;;14.91;100.00
7962;BME280;4026;43.652;24.906;2023-05-23T04:13:18;98980.38;;;15.05;100.00
7962;BME280;4026;43.652;24.906;2023-05-23T04:15:47;98979.22;;;15.17;100.00
7962;BME280;4026;43.652;24.906;2023-05-23T04:18:14;98976.81;;;15.16;100.00
7962;BME280;4026;43.652;24.906;2023-05-23T04:20:43;98985.25;;;15.36;100.00
7962;BME280;4026;43.652;24.906;2023-05-23T04:23:10;98992.09;;;15.45;100.00
7962;BME280;4026;43.652;24.906;2023-05-23T04:25:36;98994.06;;;15.33;100.00
7962;BME280;4026;43.652;24.906;2023-05-23T04:28:03;98991.25;;;15.54;100.00
7962;BME280;4026;43.652;24.906;2023-05-23T04:30:30;99001.75;;;15.71;100.00
7962;BME280;4026;43.652;24.906;2023-05-23T04:32:57;99007.06;;;15.87;100.00
7962;BME280;4026;43.652;24.906;2023-05-23T04:35:24;99009.13;;;16.01;100.00
7962;BME280;4026;43.652;24.906;2023-05-23T04:37:56;99008.81;;;16.22;100.00
7962;BME280;4026;43.652;24.906;2023-05-23T04:40:23;99010.59;;;16.22;100.00
7962;BME280;4026;43.652;24.906;2023-05-23T04:42:50;99012.34;;;16.39;100.00
7962;BME280;4026;43.652;24.906;2023-05-23T04:45:16;99011.34;;;16.32;100.00
7962;BME280;4026;43.652;24.906;2023-05-23T04:47:44;99017.94;;;16.52;100.00
7962;BME280;4026;43.652;24.906;2023-05-23T04:50:11;99012.44;;;16.73;100.00
7962;BME280;4026;43.652;24.906;2023-05-23T04:52:39;99011.38;;;16.58;100.00
7962;BME280;4026;43.652;24.906;2023-05-23T04:55:07;99010.28;;;16.69;100.00
7962;BME280;4026;43.652;24.906;2023-05-23T04:57:34;99010.44;;;16.85;100.00
7962;BME280;4026;43.652;24.906;2023-05-23T05:00:02;99003.88;;;16.99;100.00
7962;BME280;4026;43.652;24.906;2023-05-23T05:02:32;99005.28;;;17.19;100.00
7962;BME280;4026;43.652;24.906;2023-05-23T05:05:01;99012.53;;;17.24;100.00
7962;BME280;4026;43.652;24.906;2023-05-23T05:07:28;99017.00;;;17.06;100.00
7962;BME280;4026;43.652;24.906;2023-05-23T05:09:55;99015.13;;;17.24;100.00
7962;BME280;4026;43.652;24.906;2023-05-23T05:12:23;99010.34;;;17.37;100.00
7962;BME280;4026;43.652;24.906;2023-05-23T05:14:50;99006.88;;;17.63;100.00
7962;BME280;4026;43.652;24.906;2023-05-23T05:17:17;99007.91;;;17.86;100.00
7962;BME280;4026;43.652;24.906;2023-05-23T05:19:44;99008.00;;;17.60;100.00
7962;BME280;4026;43.652;24.906;2023-05-23T05:22:11;99019.22;;;17.35;100.00
7962;BME280;4026;43.652;24.906;2023-05-23T05:24:38;99015.66;;;17.95;100.00
7962;BME280;4026;43.652;24.906;2023-05-23T05:27:05;99016.19;;;18.47;100.00
7962;BME280;4026;43.652;24.906;2023-05-23T05:29:35;99023.44;;;18.85;100.00
7962;BME280;4026;43.652;24.906;2023-05-23T05:32:02;99020.22;;;18.83;100.00
7962;BME280;4026;43.652;24.906;2023-05-23T05:34:29;99016.06;;;19.13;100.00
7962;BME280;4026;43.652;24.906;2023-05-23T05:36:56;99015.44;;;19.50;100.00
7962;BME280;4026;43.652;24.906;2023-05-23T05:39:23;99015.41;;;19.58;100.00
7962;BME280;4026;43.652;24.906;2023-05-23T05:41:51;99024.25;;;20.18;100.00
7962;BME280;4026;43.652;24.906;2023-05-23T05:44:17;99028.25;;;20.29;100.00
7962;BME280;4026;43.652;24.906;2023-05-23T05:46:46;99034.47;;;20.66;100.00
7962;BME280;4026;43.652;24.906;2023-05-23T05:49:13;99037.13;;;20.34;98.91
7962;BME280;4026;43.652;24.906;2023-05-23T05:51:40;99040.75;;;20.86;100.00
7962;BME280;4026;43.652;24.906;2023-05-23T05:54:07;99046.16;;;20.62;99.93
7962;BME280;4026;43.652;24.906;2023-05-23T05:56:33;99041.34;;;20.12;100.00
7962;BME280;4026;43.652;24.906;2023-05-23T05:59:00;99037.69;;;19.76;100.00
7962;BME280;4026;43.652;24.906;2023-05-23T06:01:27;99039.75;;;19.49;100.00
7962;BME280;4026;43.652;24.906;2023-05-23T06:03:56;99044.63;;;20.52;100.00
7962;BME280;4026;43.652;24.906;2023-05-23T06:06:23;99041.72;;;21.00;100.00
7962;BME280;4026;43.652;24.906;2023-05-23T06:08:50;99054.63;;;20.93;93.90
7962;BME280;4026;43.652;24.906;2023-05-23T06:11:17;99043.09;;;21.40;94.01
7962;BME280;4026;43.652;24.906;2023-05-23T06:13:44;99049.50;;;21.96;89.46
7962;BME280;4026;43.652;24.906;2023-05-23T06:16:12;99054.53;;;21.61;91.34
7962;BME280;4026;43.652;24.906;2023-05-23T06:18:39;99052.19;;;21.66;89.95
7962;BME280;4026;43.652;24.906;2023-05-23T06:21:08;99049.28;;;21.90;92.44
7962;BME280;4026;43.652;24.906;2023-05-23T06:23:35;99054.09;;;22.15;89.04
7962;BME280;4026;43.652;24.906;2023-05-23T06:26:02;99061.38;;;22.41;87.71
7962;BME280;4026;43.652;24.906;2023-05-23T06:28:32;99058.69;;;22.56;83.55
7962;BME280;4026;43.652;24.906;2023-05-23T06:30:59;99054.53;;;22.62;84.97
7962;BME280;4026;43.652;24.906;2023-05-23T06:33:26;99051.28;;;22.88;85.21
7962;BME280;4026;43.652;24.906;2023-05-23T06:35:53;99050.53;;;22.94;81.17
7962;BME280;4026;43.652;24.906;2023-05-23T06:38:21;99051.63;;;23.06;79.97
7962;BME280;4026;43.652;24.906;2023-05-23T06:40:48;99049.31;;;22.90;77.91
7962;BME280;4026;43.652;24.906;2023-05-23T06:43:15;99049.78;;;23.00;79.88
7962;BME280;4026;43.652;24.906;2023-05-23T06:45:44;99054.97;;;22.72;79.47
7962;BME280;4026;43.652;24.906;2023-05-23T06:48:11;99044.78;;;22.98;81.54
7962;BME280;4026;43.652;24.906;2023-05-23T06:50:38;99042.09;;;23.26;81.52
7962;BME280;4026;43.652;24.906;2023-05-23T06:53:05;99048.03;;;23.62;76.59
7962;BME280;4026;43.652;24.906;2023-05-23T06:55:34;99054.94;;;23.21;73.71
7962;BME280;4026;43.652;24.906;2023-05-23T06:58:01;99048.13;;;22.92;75.21
7962;BME280;4026;43.652;24.906;2023-05-23T07:00:28;99041.53;;;23.38;81.39
7962;BME280;4026;43.652;24.906;2023-05-23T07:02:56;99044.09;;;23.72;77.78
7962;BME280;4026;43.652;24.906;2023-05-23T07:05:25;99048.56;;;23.99;78.79
7962;BME280;4026;43.652;24.906;2023-05-23T07:07:52;99046.97;;;24.04;77.50
7962;BME280;4026;43.652;24.906;2023-05-23T07:10:19;99051.81;;;24.34;73.18
7962;BME280;4026;43.652;24.906;2023-05-23T07:12:48;99049.41;;;24.39;71.86
7962;BME280;4026;43.652;24.906;2023-05-23T07:15:15;99044.00;;;24.21;71.74
7962;BME280;4026;43.652;24.906;2023-05-23T07:17:42;99047.59;;;24.20;76.98
7962;BME280;4026;43.652;24.906;2023-05-23T07:20:09;99040.59;;;24.53;73.01
7962;BME280;4026;43.652;24.906;2023-05-23T07:22:36;99041.75;;;24.11;73.93
7962;BME280;4026;43.652;24.906;2023-05-23T07:25:04;99042.59;;;24.65;74.03
7962;BME280;4026;43.652;24.906;2023-05-23T07:27:31;99042.19;;;24.68;66.10
7962;BME280;4026;43.652;24.906;2023-05-23T07:29:59;99042.00;;;24.76;71.59
7962;BME280;4026;43.652;24.906;2023-05-23T07:32:26;99041.38;;;24.87;75.18
7962;BME280;4026;43.652;24.906;2023-05-23T07:34:52;99038.06;;;25.12;75.14
7962;BME280;4026;43.652;24.906;2023-05-23T07:37:19;99039.03;;;25.37;67.66
7962;BME280;4026;43.652;24.906;2023-05-23T07:39:46;99040.56;;;24.67;62.96
7962;BME280;4026;43.652;24.906;2023-05-23T07:42:13;99040.19;;;24.23;67.20
7962;BME280;4026;43.652;24.906;2023-05-23T07:44:40;99043.78;;;24.69;66.27
7962;BME280;4026;43.652;24.906;2023-05-23T07:47:08;99038.56;;;24.82;65.70
7962;BME280;4026;43.652;24.906;2023-05-23T07:49:35;99051.34;;;25.10;68.25
7962;BME280;4026;43.652;24.906;2023-05-23T07:52:02;99039.09;;;25.11;62.87
7962;BME280;4026;43.652;24.906;2023-05-23T07:54:29;99046.16;;;25.03;62.39
7962;BME280;4026;43.652;24.906;2023-05-23T07:56:56;99040.38;;;25.46;63.53
7962;BME280;4026;43.652;24.906;2023-05-23T07:59:22;99037.09;;;24.93;66.58
7962;BME280;4026;43.652;24.906;2023-05-23T08:01:49;99040.50;;;25.06;61.26
7962;BME280;4026;43.652;24.906;2023-05-23T08:04:17;99030.16;;;24.53;60.78
7962;BME280;4026;43.652;24.906;2023-05-23T08:06:44;99038.53;;;24.89;63.26
7962;BME280;4026;43.652;24.906;2023-05-23T08:09:13;99035.16;;;25.46;62.14
7962;BME280;4026;43.652;24.906;2023-05-23T08:11:39;99028.97;;;25.72;56.93
7962;BME280;4026;43.652;24.906;2023-05-23T08:14:06;99032.88;;;25.63;54.25
7962;BME280;4026;43.652;24.906;2023-05-23T08:16:34;99022.66;;;25.80;59.11
7962;BME280;4026;43.652;24.906;2023-05-23T08:19:01;99026.13;;;25.74;53.00
7962;BME280;4026;43.652;24.906;2023-05-23T08:21:29;99026.94;;;25.36;54.66
7962;BME280;4026;43.652;24.906;2023-05-23T08:23:56;99032.13;;;25.88;50.92
7962;BME280;4026;43.652;24.906;2023-05-23T08:26:23;99022.69;;;26.12;50.95
7962;BME280;4026;43.652;24.906;2023-05-23T08:28:51;99026.88;;;26.45;51.86
7962;BME280;4026;43.652;24.906;2023-05-23T08:31:18;99022.06;;;26.67;49.70
7962;BME280;4026;43.652;24.906;2023-05-23T08:33:46;99025.38;;;26.30;51.29
7962;BME280;4026;43.652;24.906;2023-05-23T08:36:13;99011.19;;;26.63;53.05
7962;BME280;4026;43.652;24.906;2023-05-23T08:38:41;99014.06;;;26.80;54.29
7962;BME280;4026;43.652;24.906;2023-05-23T08:41:15;99022.59;;;27.12;51.25
7962;BME280;4026;43.652;24.906;2023-05-23T08:43:43;99021.84;;;27.05;50.10
7962;BME280;4026;43.652;24.906;2023-05-23T08:46:11;99020.41;;;27.27;50.72
7962;BME280;4026;43.652;24.906;2023-05-23T08:48:38;99018.28;;;26.62;47.97
7962;BME280;4026;43.652;24.906;2023-05-23T08:51:08;99015.38;;;26.71;47.15
7962;BME280;4026;43.652;24.906;2023-05-23T08:53:37;99016.47;;;27.18;46.33
7962;BME280;4026;43.652;24.906;2023-05-23T08:56:09;99009.47;;;27.61;46.87
7962;BME280;4026;43.652;24.906;2023-05-23T08:58:36;99019.91;;;27.19;46.99
7962;BME280;4026;43.652;24.906;2023-05-23T09:01:05;99020.56;;;27.14;48.21
7962;BME280;4026;43.652;24.906;2023-05-23T09:03:32;99009.81;;;27.64;49.99
7962;BME280;4026;43.652;24.906;2023-05-23T09:06:02;99011.34;;;28.26;47.37
7962;BME280;4026;43.652;24.906;2023-05-23T09:08:29;99003.25;;;27.43;47.03
7962;BME280;4026;43.652;24.906;2023-05-23T09:10:56;99003.41;;;27.30;47.22
7962;BME280;4026;43.652;24.906;2023-05-23T09:13:24;99002.00;;;26.54;49.04
7962;BME280;4026;43.652;24.906;2023-05-23T09:15:57;99002.44;;;27.43;47.33
7962;BME280;4026;43.652;24.906;2023-05-23T09:18:27;99005.72;;;27.68;48.74
7962;BME280;4026;43.652;24.906;2023-05-23T09:20:58;99006.25;;;27.89;53.31
7962;BME280;4026;43.652;24.906;2023-05-23T09:23:29;99010.25;;;27.91;46.32
7962;BME280;4026;43.652;24.906;2023-05-23T09:25:56;99002.94;;;27.63;46.05
7962;BME280;4026;43.652;24.906;2023-05-23T09:28:24;99006.69;;;26.89;46.47
7962;BME280;4026;43.652;24.906;2023-05-23T09:30:57;99006.19;;;26.98;49.19
7962;BME280;4026;43.652;24.906;2023-05-23T09:33:28;99004.50;;;26.67;46.20
7962;BME280;4026;43.652;24.906;2023-05-23T09:35:55;99000.72;;;27.00;46.61
7962;BME280;4026;43.652;24.906;2023-05-23T09:38:23;99000.75;;;27.79;48.04
7962;BME280;4026;43.652;24.906;2023-05-23T09:40:53;98993.94;;;28.01;47.97
7962;BME280;4026;43.652;24.906;2023-05-23T09:43:23;99000.09;;;27.95;46.79
7962;BME280;4026;43.652;24.906;2023-05-23T09:45:52;99002.16;;;27.93;49.07
7962;BME280;4026;43.652;24.906;2023-05-23T09:48:27;99000.88;;;27.84;48.86
7962;BME280;4026;43.652;24.906;2023-05-23T09:50:55;99004.22;;;27.61;48.42
7962;BME280;4026;43.652;24.906;2023-05-23T09:53:22;99001.38;;;27.62;47.71
7962;BME280;4026;43.652;24.906;2023-05-23T09:55:50;98994.53;;;27.61;44.54
7962;BME280;4026;43.652;24.906;2023-05-23T09:58:18;98995.41;;;27.55;47.83
7962;BME280;4026;43.652;24.906;2023-05-23T10:00:48;98991.75;;;27.86;46.39
7962;BME280;4026;43.652;24.906;2023-05-23T10:03:16;98992.47;;;28.17;45.96
7962;BME280;4026;43.652;24.906;2023-05-23T10:05:47;98992.03;;;28.20;47.48
7962;BME280;4026;43.652;24.906;2023-05-23T10:08:20;98985.50;;;27.99;47.24
7962;BME280;4026;43.652;24.906;2023-05-23T10:13:53;98984.53;;;27.82;45.67
7962;BME280;4026;43.652;24.906;2023-05-23T10:16:26;98982.28;;;27.97;47.01
7962;BME280;4026;43.652;24.906;2023-05-23T10:18:56;98980.09;;;27.82;51.11
7962;BME280;4026;43.652;24.906;2023-05-23T10:21:32;98982.06;;;27.87;46.83
7962;BME280;4026;43.652;24.906;2023-05-23T10:24:02;98981.59;;;27.90;51.22
7962;BME280;4026;43.652;24.906;2023-05-23T10:26:29;98987.13;;;28.47;49.82
7962;BME280;4026;43.652;24.906;2023-05-23T10:28:56;98980.72;;;28.66;45.96
7962;BME280;4026;43.652;24.906;2023-05-23T10:31:26;98982.56;;;28.54;47.05
7962;BME280;4026;43.652;24.906;2023-05-23T10:33:59;98978.22;;;28.25;48.64
7962;BME280;4026;43.652;24.906;2023-05-23T10:36:33;98974.06;;;28.29;50.06
7962;BME280;4026;43.652;24.906;2023-05-23T10:39:06;98976.34;;;28.02;47.15
7962;BME280;4026;43.652;24.906;2023-05-23T10:41:39;98974.41;;;28.09;49.00
7962;BME280;4026;43.652;24.906;2023-05-23T10:44:11;98964.25;;;28.59;48.88
7962;BME280;4026;43.652;24.906;2023-05-23T10:46:54;98970.44;;;28.53;48.78
7962;BME280;4026;43.652;24.906;2023-05-23T10:49:36;98973.44;;;28.45;48.29
7962;BME280;4026;43.652;24.906;2023-05-23T10:52:03;98972.38;;;28.23;46.78
7962;BME280;4026;43.652;24.906;2023-05-23T10:54:33;98968.25;;;28.50;47.94
7962;BME280;4026;43.652;24.906;2023-05-23T10:57:04;98968.03;;;28.16;46.89
7962;BME280;4026;43.652;24.906;2023-05-23T10:59:31;98958.78;;;28.49;49.75
7962;BME280;4026;43.652;24.906;2023-05-23T11:02:02;98967.66;;;28.72;50.85
7962;BME280;4026;43.652;24.906;2023-05-23T11:04:28;98963.31;;;28.18;47.57
7962;BME280;4026;43.652;24.906;2023-05-23T11:06:55;98958.03;;;27.95;48.21
7962;BME280;4026;43.652;24.906;2023-05-23T11:09:22;98958.75;;;27.00;48.33
7962;BME280;4026;43.652;24.906;2023-05-23T11:11:59;98951.00;;;27.23;50.28
7962;BME280;4026;43.652;24.906;2023-05-23T11:14:31;98945.63;;;27.60;50.75
7962;BME280;4026;43.652;24.906;2023-05-23T11:17:00;98949.81;;;27.80;47.79
7962;BME280;4026;43.652;24.906;2023-05-23T11:19:54;98932.22;;;28.15;51.95
7962;BME280;4026;43.652;24.906;2023-05-23T11:22:26;98939.31;;;28.27;48.01
7962;BME280;4026;43.652;24.906;2023-05-23T11:24:55;98948.91;;;28.09;47.89
7962;BME280;4026;43.652;24.906;2023-05-23T11:27:27;98940.75;;;27.75;47.85
7962;BME280;4026;43.652;24.906;2023-05-23T11:30:02;98947.88;;;27.45;48.68
7962;BME280;4026;43.652;24.906;2023-05-23T11:32:30;98936.34;;;27.46;46.56
7962;BME280;4026;43.652;24.906;2023-05-23T11:35:01;98930.44;;;27.20;46.27
7962;BME280;4026;43.652;24.906;2023-05-23T11:37:29;98928.81;;;27.19;46.03
7962;BME280;4026;43.652;24.906;2023-05-23T11:39:56;98928.19;;;27.05;46.47
7962;BME280;4026;43.652;24.906;2023-05-23T11:42:23;98930.13;;;26.80;48.36
7962;BME280;4026;43.652;24.906;2023-05-23T11:44:50;98933.56;;;27.10;50.26
7962;BME280;4026;43.652;24.906;2023-05-23T11:47:17;98923.66;;;27.43;49.15
7962;BME280;4026;43.652;24.906;2023-05-23T11:49:46;98917.22;;;27.27;48.97
7962;BME280;4026;43.652;24.906;2023-05-23T11:52:13;98910.34;;;27.68;48.89
7962;BME280;4026;43.652;24.906;2023-05-23T11:54:40;98909.03;;;28.01;47.41
7962;BME280;4026;43.652;24.906;2023-05-23T11:57:07;98915.31;;;28.35;45.76
7962;BME280;4026;43.652;24.906;2023-05-23T11:59:34;98915.28;;;28.58;45.49
7962;BME280;4026;43.652;24.906;2023-05-23T12:02:02;98913.44;;;28.71;45.23
7962;BME280;4026;43.652;24.906;2023-05-23T12:04:29;98916.19;;;28.64;43.81
7962;BME280;4026;43.652;24.906;2023-05-23T12:06:57;98921.69;;;28.39;42.42
7962;BME280;4026;43.652;24.906;2023-05-23T12:09:24;98913.28;;;28.13;44.44
7962;BME280;4026;43.652;24.906;2023-05-23T12:11:51;98902.03;;;28.30;44.08
7962;BME280;4026;43.652;24.906;2023-05-23T12:14:17;98904.22;;;28.21;43.88
7962;BME280;4026;43.652;24.906;2023-05-23T12:16:44;98910.53;;;28.08;45.22
7962;BME280;4026;43.652;24.906;2023-05-23T12:19:12;98909.38;;;27.81;45.79
7962;BME280;4026;43.652;24.906;2023-05-23T12:21:41;98913.81;;;27.92;48.21
7962;BME280;4026;43.652;24.906;2023-05-23T12:24:16;98899.28;;;27.66;48.73
7962;BME280;4026;43.652;24.906;2023-05-23T12:26:50;98893.97;;;27.96;44.44
7962;BME280;4026;43.652;24.906;2023-05-23T12:29:19;98890.88;;;27.99;45.52
7962;BME280;4026;43.652;24.906;2023-05-23T12:31:50;98889.63;;;28.13;47.66
7962;BME280;4026;43.652;24.906;2023-05-23T12:34:19;98903.53;;;28.49;46.99
7962;BME280;4026;43.652;24.906;2023-05-23T12:36:46;98900.56;;;28.57;48.02
7962;BME280;4026;43.652;24.906;2023-05-23T12:39:23;98901.56;;;27.62;46.99
7962;BME280;4026;43.652;24.906;2023-05-23T12:41:50;98901.72;;;27.07;48.57
7962;BME280;4026;43.652;24.906;2023-05-23T12:44:17;98902.31;;;26.35;49.22
7962;BME280;4026;43.652;24.906;2023-05-23T12:46:45;98902.63;;;25.20;49.25
7962;BME280;4026;43.652;24.906;2023-05-23T12:49:12;98914.72;;;24.56;48.91
7962;BME280;4026;43.652;24.906;2023-05-23T12:51:39;98913.53;;;24.26;49.14
7962;BME280;4026;43.652;24.906;2023-05-23T12:54:07;98901.09;;;24.08;49.35
7962;BME280;4026;43.652;24.906;2023-05-23T12:56:35;98896.31;;;23.85;52.02
7962;BME280;4026;43.652;24.906;2023-05-23T12:59:02;98903.50;;;23.69;52.12
7962;BME280;4026;43.652;24.906;2023-05-23T13:01:29;98895.81;;;23.21;50.96
7962;BME280;4026;43.652;24.906;2023-05-23T13:03:58;98897.81;;;23.13;53.81
7962;BME280;4026;43.652;24.906;2023-05-23T13:06:25;98900.94;;;22.95;53.85
7962;BME280;4026;43.652;24.906;2023-05-23T13:08:52;98893.34;;;23.00;54.39
7962;BME280;4026;43.652;24.906;2023-05-23T13:11:19;98899.31;;;22.94;54.59
7962;BME280;4026;43.652;24.906;2023-05-23T13:13:48;98892.13;;;23.02;55.37